Terminal Aerodrome Forecast
Issued by NWS

Home | Current Version | Previous Version | Text Only | Print | Product List | Glossary Off
Versions: 1 2 3 4 5 6 7 8 9 10 11 12 13 14 15

130
FTUS43 KMPX 170902 AAA
TAFAXN
TAF AMD
KAXN 170902Z 1709/1806 14004KT 5SM BR SKC
     FM171300 18006KT P6SM SKC
     FM172000 25006KT P6SM FEW150
     FM180000 29009KT P6SM SCT150=

USA.gov is the U.S. government's official web portal to all federal, state and local government web resources and services.